Time;durP1;ratioP1;P1;durP2;ratioP2;P2;SDS_P1;SDS_P2;PMS_P1;PMS_P2;Temp;Humidity;BMP_temperature;BMP_pressure;BME280_temperature;BME280_humidity;BME280_pressure;Samples;Min_cycle;Max_cycle;Signal;HPM_P1;HPM_P2
2021/08/14 00:01:30;;;;;;;;;;;26.20;53.40;;;;;;1603015;73;756;-71
2021/08/14 00:03:32;;;;;;;;;;;26.20;53.30;;;;;;1588789;73;1942;-70
2021/08/14 00:05:34;;;;;;;;;;;26.20;53.20;;;;;;1600984;73;755;-71
2021/08/14 00:07:36;;;;;;;;;;;26.20;53.30;;;;;;1592037;73;748;-70
2021/08/14 00:09:38;;;;;;;;;;;26.20;53.20;;;;;;1595461;74;1116;-70
2021/08/14 00:11:40;;;;;;;;;;;26.20;53.20;;;;;;1597776;73;775;-70
2021/08/14 00:13:41;;;;;;;;;;;26.20;53.30;;;;;;1590874;73;768;-71
2021/08/14 00:15:43;;;;;;;;;;;26.30;53.20;;;;;;1591385;73;809;-71
2021/08/14 00:17:45;;;;;;;;;;;26.30;53.20;;;;;;1596673;73;754;-71
2021/08/14 00:19:47;;;;;;;;;;;26.30;53.10;;;;;;1587012;73;1136;-70
2021/08/14 00:21:49;;;;;;;;;;;26.30;53.10;;;;;;1586142;73;683;-70
2021/08/14 00:23:51;;;;;;;;;;;26.30;53.00;;;;;;1596945;73;1945;-70
2021/08/14 00:25:55;;;;;;;;;;;26.30;53.10;;;;;;1599900;73;805;-69
2021/08/14 00:27:56;;;;;;;;;;;26.30;53.20;;;;;;1589531;74;1441;-69
2021/08/14 00:29:58;;;;;;;;;;;26.30;53.20;;;;;;1596124;73;1155;-69
2021/08/14 00:32:00;;;;;;;;;;;26.20;53.20;;;;;;1597193;73;764;-70
2021/08/14 00:34:02;;;;;;;;;;;26.20;53.30;;;;;;1605720;73;716;-69
2021/08/14 00:36:04;;;;;;;;;;;26.30;53.20;;;;;;1588904;73;767;-69
2021/08/14 00:38:06;;;;;;;;;;;26.30;53.20;;;;;;1592761;72;2143;-70
2021/08/14 00:40:08;;;;;;;;;;;26.30;53.20;;;;;;1611673;73;779;-71
2021/08/14 00:42:10;;;;;;;;;;;26.30;53.20;;;;;;1615617;73;788;-72
2021/08/14 00:44:12;;;;;;;;;;;26.30;53.20;;;;;;1607924;73;1941;-70
2021/08/14 00:46:14;;;;;;;;;;;26.30;53.30;;;;;;1597675;73;807;-70
2021/08/14 00:48:16;;;;;;;;;;;26.30;53.40;;;;;;1586025;74;1201;-68
2021/08/14 00:50:17;;;;;;;;;;;26.20;53.40;;;;;;1572077;74;768;-68
2021/08/14 00:52:19;;;;;;;;;;;26.20;53.50;;;;;;1568138;74;747;-70
2021/08/14 00:54:21;;;;;;;;;;;26.20;53.50;;;;;;1570638;74;710;-71
2021/08/14 00:56:24;;;;;;;;;;;26.20;53.60;;;;;;1568367;75;722;-70
2021/08/14 00:58:26;;;;;;;;;;;26.20;53.50;;;;;;1577154;74;1128;-69
2021/08/14 01:00:28;;;;;;;;;;;26.20;53.40;;;;;;1577375;74;807;-70
2021/08/14 01:02:30;;;;;;;;;;;26.20;53.30;;;;;;1579374;74;726;-69
2021/08/14 01:04:32;;;;;;;;;;;26.20;53.30;;;;;;1576243;74;1969;-70
2021/08/14 01:06:34;;;;;;;;;;;26.30;53.30;;;;;;1580700;74;693;-69
2021/08/14 01:08:36;;;;;;;;;;;26.30;53.30;;;;;;1570356;74;1109;-71
2021/08/14 01:10:38;;;;;;;;;;;26.20;53.30;;;;;;1577854;74;780;-70
2021/08/14 01:12:39;;;;;;;;;;;26.30;53.40;;;;;;1589181;74;764;-70
2021/08/14 01:14:41;;;;;;;;;;;26.20;53.40;;;;;;1553970;75;799;-70
2021/08/14 01:16:43;;;;;;;;;;;26.20;53.40;;;;;;1582288;74;1071;-70
2021/08/14 01:18:45;;;;;;;;;;;26.30;53.40;;;;;;1581958;74;784;-67
2021/08/14 01:20:48;;;;;;;;;;;26.30;53.40;;;;;;1569621;74;774;-70
2021/08/14 01:22:50;;;;;;;;;;;26.20;53.40;;;;;;1572466;74;796;-70
2021/08/14 01:24:52;;;;;;;;;;;26.30;53.40;;;;;;1566657;74;1932;-69
2021/08/14 01:26:54;;;;;;;;;;;26.20;53.40;;;;;;1577452;74;1138;-70
2021/08/14 01:28:56;;;;;;;;;;;26.20;53.40;;;;;;1548964;75;1239;-70
2021/08/14 01:30:58;;;;;;;;;;;26.20;53.40;;;;;;1571905;74;655;-70
2021/08/14 01:33:00;;;;;;;;;;;26.20;53.40;;;;;;1574508;74;802;-70
2021/08/14 01:35:02;;;;;;;;;;;26.20;53.40;;;;;;1583367;74;780;-70
2021/08/14 01:37:04;;;;;;;;;;;26.20;53.30;;;;;;1581725;74;1131;-70
2021/08/14 01:39:06;;;;;;;;;;;26.30;53.30;;;;;;1606786;73;792;-70
2021/08/14 01:41:08;;;;;;;;;;;26.20;53.40;;;;;;1600487;73;772;-70
2021/08/14 01:43:10;;;;;;;;;;;26.20;53.40;;;;;;1597476;73;722;-71
2021/08/14 01:45:12;;;;;;;;;;;26.10;53.40;;;;;;1605067;73;1941;-72
2021/08/14 01:47:14;;;;;;;;;;;26.20;53.40;;;;;;1604352;72;1144;-70
2021/08/14 01:49:16;;;;;;;;;;;26.20;53.40;;;;;;1591363;73;713;-68
2021/08/14 01:51:17;;;;;;;;;;;26.20;53.40;;;;;;1598686;73;761;-67
2021/08/14 01:53:19;;;;;;;;;;;26.20;53.40;;;;;;1596807;73;778;-70
2021/08/14 01:55:21;;;;;;;;;;;26.20;53.30;;;;;;1596081;73;790;-70
2021/08/14 01:57:23;;;;;;;;;;;26.20;53.40;;;;;;1586886;73;1196;-70
2021/08/14 01:59:25;;;;;;;;;;;26.20;53.40;;;;;;1608808;73;905;-69
2021/08/14 02:01:27;;;;;;;;;;;26.10;53.40;;;;;;1603651;73;769;-71
2021/08/14 02:03:29;;;;;;;;;;;26.20;53.40;;;;;;1590057;73;745;-71
2021/08/14 02:05:31;;;;;;;;;;;26.20;53.40;;;;;;1599024;73;1952;-69
2021/08/14 02:07:33;;;;;;;;;;;26.20;53.50;;;;;;1593667;73;1158;-69
2021/08/14 02:09:35;;;;;;;;;;;26.10;53.40;;;;;;1595425;73;822;-69
2021/08/14 02:11:37;;;;;;;;;;;26.10;53.40;;;;;;1590366;73;770;-68
2021/08/14 02:13:39;;;;;;;;;;;26.20;53.40;;;;;;1593395;73;775;-69
2021/08/14 02:15:41;;;;;;;;;;;26.20;53.40;;;;;;1604849;73;716;-72
2021/08/14 02:17:43;;;;;;;;;;;26.20;53.40;;;;;;1607109;73;1118;-69
2021/08/14 02:19:45;;;;;;;;;;;26.10;53.40;;;;;;1602964;73;777;-69
2021/08/14 02:21:47;;;;;;;;;;;26.20;53.50;;;;;;1594655;73;706;-69
2021/08/14 02:23:49;;;;;;;;;;;26.20;53.40;;;;;;1596547;73;667;-71
2021/08/14 02:25:51;;;;;;;;;;;26.10;53.50;;;;;;1597784;73;1942;-71
2021/08/14 02:27:53;;;;;;;;;;;26.10;53.40;;;;;;1600339;73;1100;-71
2021/08/14 02:29:54;;;;;;;;;;;26.10;53.40;;;;;;1600403;73;761;-71
2021/08/14 02:31:56;;;;;;;;;;;26.20;53.50;;;;;;1591656;73;799;-72
2021/08/14 02:33:58;;;;;;;;;;;26.20;53.40;;;;;;1602186;73;790;-71
2021/08/14 02:36:01;;;;;;;;;;;26.20;53.40;;;;;;1597148;73;813;-70
2021/08/14 02:38:03;;;;;;;;;;;26.10;53.40;;;;;;1595931;73;1132;-70
2021/08/14 02:40:05;;;;;;;;;;;26.20;53.40;;;;;;1604196;73;700;-70
2021/08/14 02:42:07;;;;;;;;;;;26.20;53.50;;;;;;1613590;73;761;-70
2021/08/14 02:44:09;;;;;;;;;;;26.20;53.50;;;;;;1588446;73;765;-70
2021/08/14 02:46:10;;;;;;;;;;;26.10;53.50;;;;;;1611378;73;1936;-70
2021/08/14 02:48:12;;;;;;;;;;;26.10;53.50;;;;;;1593563;73;1139;-70
2021/08/14 02:50:14;;;;;;;;;;;26.10;53.60;;;;;;1592916;73;803;-72
2021/08/14 02:52:16;;;;;;;;;;;26.20;53.50;;;;;;1585896;73;809;-69
2021/08/14 02:54:18;;;;;;;;;;;26.10;53.40;;;;;;1607132;73;788;-70
2021/08/14 02:56:20;;;;;;;;;;;26.20;53.40;;;;;;1580007;73;760;-74
2021/08/14 02:58:22;;;;;;;;;;;26.10;53.40;;;;;;1585985;73;1122;-70
2021/08/14 03:00:23;;;;;;;;;;;26.10;53.40;;;;;;1597957;73;757;-70
2021/08/14 03:02:25;;;;;;;;;;;26.10;53.40;;;;;;1590329;73;764;-71
2021/08/14 03:04:27;;;;;;;;;;;26.10;53.30;;;;;;1592468;73;795;-71
2021/08/14 03:06:29;;;;;;;;;;;26.20;53.30;;;;;;1591408;73;1943;-72
2021/08/14 03:08:31;;;;;;;;;;;26.10;53.30;;;;;;1595868;73;1067;-70
2021/08/14 03:10:33;;;;;;;;;;;26.10;53.30;;;;;;1593966;73;794;-71
2021/08/14 03:12:35;;;;;;;;;;;26.10;53.30;;;;;;1602286;73;829;-71
2021/08/14 03:14:38;;;;;;;;;;;26.10;53.20;;;;;;1598081;73;800;-71
2021/08/14 03:16:40;;;;;;;;;;;26.10;53.20;;;;;;1592918;73;1113;-72
2021/08/14 03:18:42;;;;;;;;;;;26.10;53.10;;;;;;1593157;73;770;-70
2021/08/14 03:20:43;;;;;;;;;;;26.20;53.10;;;;;;1588152;73;792;-71
2021/08/14 03:22:45;;;;;;;;;;;26.10;53.30;;;;;;1581578;73;767;-71
2021/08/14 03:24:47;;;;;;;;;;;26.10;53.30;;;;;;1595801;73;2073;-70
2021/08/14 03:26:49;;;;;;;;;;;26.10;53.30;;;;;;1581356;73;1127;-67
2021/08/14 03:28:51;;;;;;;;;;;26.00;53.30;;;;;;1587857;73;710;-70
2021/08/14 03:30:53;;;;;;;;;;;26.10;53.30;;;;;;1592027;73;733;-70
2021/08/14 03:32:55;;;;;;;;;;;26.00;53.20;;;;;;1609947;73;781;-70
2021/08/14 03:34:57;;;;;;;;;;;26.10;53.20;;;;;;1601163;73;809;-72
2021/08/14 03:36:59;;;;;;;;;;;26.10;53.10;;;;;;1601101;73;1130;-69
2021/08/14 03:39:01;;;;;;;;;;;26.10;53.20;;;;;;1594519;73;693;-70
2021/08/14 03:41:03;;;;;;;;;;;26.20;53.00;;;;;;1596327;73;718;-70
2021/08/14 03:43:05;;;;;;;;;;;26.10;53.10;;;;;;1595543;73;818;-71
2021/08/14 03:45:07;;;;;;;;;;;26.10;53.00;;;;;;1596238;73;1932;-72
2021/08/14 03:47:09;;;;;;;;;;;26.10;53.10;;;;;;1608284;73;1147;-70
2021/08/14 03:49:11;;;;;;;;;;;26.10;53.10;;;;;;1587648;73;712;-69
2021/08/14 03:51:12;;;;;;;;;;;26.10;53.00;;;;;;1583719;73;726;-69
2021/08/14 03:53:15;;;;;;;;;;;26.10;53.00;;;;;;1589687;73;677;-70
2021/08/14 03:55:17;;;;;;;;;;;26.10;52.90;;;;;;1589354;73;749;-70
2021/08/14 03:57:19;;;;;;;;;;;26.10;53.00;;;;;;1594275;73;1175;-70
2021/08/14 03:59:21;;;;;;;;;;;26.10;53.00;;;;;;1601069;73;729;-70
2021/08/14 04:01:23;;;;;;;;;;;26.10;53.00;;;;;;1579504;73;834;-70
2021/08/14 04:03:25;;;;;;;;;;;26.10;53.00;;;;;;1590653;73;670;-71
2021/08/14 04:05:27;;;;;;;;;;;26.10;53.00;;;;;;1592182;73;1944;-70
2021/08/14 04:07:29;;;;;;;;;;;26.10;53.00;;;;;;1598666;73;1075;-70
2021/08/14 04:09:30;;;;;;;;;;;26.00;52.90;;;;;;1598453;73;753;-70
2021/08/14 04:11:32;;;;;;;;;;;26.10;53.00;;;;;;1591783;73;802;-70
2021/08/14 04:13:35;;;;;;;;;;;26.10;52.90;;;;;;1577917;73;785;-69
2021/08/14 04:15:36;;;;;;;;;;;26.10;52.80;;;;;;1589146;73;805;-70
2021/08/14 04:17:38;;;;;;;;;;;26.10;52.80;;;;;;1588802;73;1128;-70
2021/08/14 04:19:40;;;;;;;;;;;26.10;52.80;;;;;;1591791;73;752;-70
2021/08/14 04:21:44;;;;;;;;;;;26.00;52.80;;;;;;1586774;73;834;-71
2021/08/14 04:23:46;;;;;;;;;;;26.00;52.80;;;;;;1589910;73;1511;-70
2021/08/14 04:25:48;;;;;;;;;;;26.10;52.80;;;;;;1590066;73;1935;-70
2021/08/14 04:27:50;;;;;;;;;;;26.00;52.80;;;;;;1587090;73;1131;-70
2021/08/14 04:29:51;;;;;;;;;;;26.10;52.80;;;;;;1588035;73;806;-70
2021/08/14 04:31:53;;;;;;;;;;;26.00;52.80;;;;;;1590410;73;802;-70
2021/08/14 04:33:55;;;;;;;;;;;26.10;52.80;;;;;;1591277;73;701;-70
2021/08/14 04:35:57;;;;;;;;;;;26.00;52.80;;;;;;1585489;73;740;-70
2021/08/14 04:37:59;;;;;;;;;;;26.10;52.90;;;;;;1586250;73;1137;-71
2021/08/14 04:40:01;;;;;;;;;;;26.10;52.80;;;;;;1590444;73;941;-69
2021/08/14 04:42:04;;;;;;;;;;;26.00;52.80;;;;;;1597598;73;738;-70
2021/08/14 04:44:06;;;;;;;;;;;26.10;52.70;;;;;;1602824;73;712;-69
2021/08/14 04:46:08;;;;;;;;;;;26.10;52.70;;;;;;1609415;73;1969;-70
2021/08/14 04:48:10;;;;;;;;;;;26.10;52.80;;;;;;1598007;73;1146;-68
2021/08/14 04:50:12;;;;;;;;;;;26.00;52.70;;;;;;1597647;73;790;-71
2021/08/14 04:52:13;;;;;;;;;;;26.00;52.70;;;;;;1588287;73;823;-70
2021/08/14 04:54:15;;;;;;;;;;;26.10;52.80;;;;;;1572949;73;827;-69
2021/08/14 04:56:17;;;;;;;;;;;26.00;52.80;;;;;;1577055;73;708;-70
2021/08/14 04:58:19;;;;;;;;;;;26.00;52.80;;;;;;1578994;73;1111;-73
2021/08/14 05:00:21;;;;;;;;;;;26.10;52.80;;;;;;1581918;73;917;-70
2021/08/14 05:02:23;;;;;;;;;;;26.00;52.80;;;;;;1582446;73;759;-68
2021/08/14 05:04:25;;;;;;;;;;;26.10;52.80;;;;;;1583192;73;855;-70
2021/08/14 05:06:27;;;;;;;;;;;26.00;52.80;;;;;;1576159;73;1940;-71
2021/08/14 05:08:28;;;;;;;;;;;26.10;52.70;;;;;;1580377;73;1124;-70
2021/08/14 05:10:30;;;;;;;;;;;26.00;52.80;;;;;;1584144;73;783;-70
2021/08/14 05:12:32;;;;;;;;;;;26.10;52.80;;;;;;1585592;73;731;-70
2021/08/14 05:14:35;;;;;;;;;;;26.00;52.80;;;;;;1580668;73;706;-73
2021/08/14 05:16:37;;;;;;;;;;;26.00;52.80;;;;;;1579433;73;720;-70
2021/08/14 05:18:39;;;;;;;;;;;26.10;52.80;;;;;;1581200;73;1133;-70
2021/08/14 05:20:40;;;;;;;;;;;26.00;52.90;;;;;;1580543;73;790;-70
2021/08/14 05:22:42;;;;;;;;;;;26.10;53.00;;;;;;1582038;73;719;-70
2021/08/14 05:24:44;;;;;;;;;;;26.10;53.00;;;;;;1589480;73;716;-72
2021/08/14 05:26:46;;;;;;;;;;;26.00;53.40;;;;;;1585543;73;1930;-75
2021/08/14 05:28:48;;;;;;;;;;;26.10;53.10;;;;;;1575962;73;719;-76
2021/08/14 05:30:50;;;;;;;;;;;26.00;53.20;;;;;;1582654;73;804;-75
2021/08/14 05:32:52;;;;;;;;;;;26.10;53.30;;;;;;1584605;73;758;-71
2021/08/14 05:34:54;;;;;;;;;;;26.10;53.40;;;;;;1579912;73;731;-75
2021/08/14 05:36:55;;;;;;;;;;;26.10;53.50;;;;;;1583598;73;1111;-75
2021/08/14 05:38:57;;;;;;;;;;;26.10;53.50;;;;;;1582661;73;771;-75
2021/08/14 05:40:59;;;;;;;;;;;26.00;53.60;;;;;;1585885;73;898;-75
2021/08/14 05:43:03;;;;;;;;;;;26.10;53.60;;;;;;1606945;73;694;-75
2021/08/14 05:45:05;;;;;;;;;;;26.10;53.80;;;;;;1594630;73;1000;-76
2021/08/14 05:47:07;;;;;;;;;;;26.10;53.90;;;;;;1602006;73;1952;-76
2021/08/14 05:49:09;;;;;;;;;;;26.10;53.90;;;;;;1582076;73;734;-75
2021/08/14 05:51:11;;;;;;;;;;;26.20;53.90;;;;;;1591140;73;729;-75
2021/08/14 05:53:13;;;;;;;;;;;26.10;53.90;;;;;;1593262;73;635;-75
2021/08/14 05:55:15;;;;;;;;;;;26.20;53.90;;;;;;1606585;73;759;-72
2021/08/14 05:57:17;;;;;;;;;;;26.20;53.90;;;;;;1580257;73;1131;-74
2021/08/14 05:59:19;;;;;;;;;;;26.20;53.90;;;;;;1593787;73;767;-74
2021/08/14 06:01:21;;;;;;;;;;;26.20;53.90;;;;;;1589823;73;721;-74
2021/08/14 06:03:23;;;;;;;;;;;26.20;53.90;;;;;;1599011;73;769;-75
2021/08/14 06:05:25;;;;;;;;;;;26.20;53.90;;;;;;1593042;73;662;-75
2021/08/14 06:07:27;;;;;;;;;;;26.20;54.00;;;;;;1585150;73;1939;-77
2021/08/14 06:09:28;;;;;;;;;;;26.20;54.10;;;;;;1581246;73;718;-74
2021/08/14 06:11:31;;;;;;;;;;;26.20;54.00;;;;;;1579817;73;711;-75
2021/08/14 06:13:32;;;;;;;;;;;26.30;54.30;;;;;;1593115;73;682;-75
2021/08/14 06:15:34;;;;;;;;;;;26.20;54.30;;;;;;1597770;73;807;-75
2021/08/14 06:17:36;;;;;;;;;;;26.30;54.20;;;;;;1587563;73;1063;-75
2021/08/14 06:19:38;;;;;;;;;;;26.30;54.20;;;;;;1587407;73;706;-76
2021/08/14 06:21:40;;;;;;;;;;;26.30;54.20;;;;;;1604312;73;683;-76
2021/08/14 06:23:42;;;;;;;;;;;26.30;54.20;;;;;;1580542;73;656;-76
2021/08/14 06:25:44;;;;;;;;;;;26.40;54.20;;;;;;1598890;73;810;-77
2021/08/14 06:27:46;;;;;;;;;;;26.40;54.20;;;;;;1599334;73;1942;-76
2021/08/14 06:29:48;;;;;;;;;;;26.30;54.20;;;;;;1599127;73;1020;-74
2021/08/14 06:31:49;;;;;;;;;;;26.40;54.20;;;;;;1595652;73;706;-74
2021/08/14 06:33:51;;;;;;;;;;;26.30;54.30;;;;;;1591789;73;652;-75
2021/08/14 06:35:53;;;;;;;;;;;26.30;54.30;;;;;;1586093;73;1057;-75
2021/08/14 06:37:55;;;;;;;;;;;26.50;54.20;;;;;;1579121;72;224104;-75
2021/08/14 06:39:59;;;;;;;;;;;26.50;54.10;;;;;;1547218;74;641;-70
2021/08/14 06:42:01;;;;;;;;;;;26.50;54.00;;;;;;1557440;74;774;-70
2021/08/14 06:44:03;;;;;;;;;;;26.60;53.60;;;;;;1558029;74;807;-72
2021/08/14 06:46:05;;;;;;;;;;;26.50;53.60;;;;;;1565961;74;1946;-73
2021/08/14 06:48:07;;;;;;;;;;;26.50;53.70;;;;;;1577303;74;1204;-70
2021/08/14 06:50:09;;;;;;;;;;;26.50;53.60;;;;;;1589752;73;807;-70
2021/08/14 06:52:11;;;;;;;;;;;26.50;53.50;;;;;;1587493;73;808;-70
2021/08/14 06:54:13;;;;;;;;;;;26.50;53.50;;;;;;1587641;73;735;-70
2021/08/14 06:56:15;;;;;;;;;;;26.40;53.50;;;;;;1579002;74;722;-75
2021/08/14 06:58:17;;;;;;;;;;;26.40;53.50;;;;;;1592289;73;1122;-71
2021/08/14 07:00:19;;;;;;;;;;;26.30;53.50;;;;;;1589165;74;805;-70
2021/08/14 07:02:21;;;;;;;;;;;26.40;53.60;;;;;;1593047;73;697;-71
2021/08/14 07:04:23;;;;;;;;;;;26.40;53.50;;;;;;1584732;73;790;-72
2021/08/14 07:06:26;;;;;;;;;;;26.40;53.50;;;;;;1581099;73;1901;-70
2021/08/14 07:08:27;;;;;;;;;;;26.30;53.50;;;;;;1574041;73;1180;-70
2021/08/14 07:10:29;;;;;;;;;;;26.40;53.50;;;;;;1576478;73;786;-71
2021/08/14 07:12:31;;;;;;;;;;;26.40;53.40;;;;;;1594047;73;783;-71
2021/08/14 07:14:33;;;;;;;;;;;26.40;53.20;;;;;;1591368;73;752;-71
2021/08/14 07:16:35;;;;;;;;;;;26.30;53.20;;;;;;1591394;73;878;-72
2021/08/14 07:18:37;;;;;;;;;;;26.30;53.10;;;;;;1591400;73;1131;-71
2021/08/14 07:20:39;;;;;;;;;;;26.30;53.10;;;;;;1595167;73;792;-71
2021/08/14 07:22:41;;;;;;;;;;;26.40;53.10;;;;;;1584641;73;732;-71
2021/08/14 07:24:43;;;;;;;;;;;26.30;53.20;;;;;;1583284;73;803;-71
2021/08/14 07:26:45;;;;;;;;;;;26.30;53.20;;;;;;1587860;73;1931;-71
2021/08/14 07:28:46;;;;;;;;;;;26.30;53.10;;;;;;1579468;73;1106;-71
2021/08/14 07:30:48;;;;;;;;;;;26.30;53.10;;;;;;1588893;73;727;-72
2021/08/14 07:32:50;;;;;;;;;;;26.40;53.10;;;;;;1577266;73;792;-71
2021/08/14 07:34:52;;;;;;;;;;;26.30;53.10;;;;;;1574735;73;739;-71
2021/08/14 07:36:54;;;;;;;;;;;26.30;53.10;;;;;;1577990;73;747;-72
2021/08/14 07:38:56;;;;;;;;;;;26.30;53.20;;;;;;1586677;73;1139;-72
2021/08/14 07:40:58;;;;;;;;;;;26.30;53.20;;;;;;1584201;73;742;-71
2021/08/14 07:43:00;;;;;;;;;;;26.30;53.10;;;;;;1560431;74;783;-71
2021/08/14 07:45:01;;;;;;;;;;;26.30;53.10;;;;;;1595048;73;804;-71
2021/08/14 07:47:03;;;;;;;;;;;26.30;53.10;;;;;;1581935;73;1936;-71
2021/08/14 07:49:05;;;;;;;;;;;26.40;53.10;;;;;;1594104;73;660;-72
2021/08/14 07:51:07;;;;;;;;;;;26.30;53.10;;;;;;1585592;73;711;-72
2021/08/14 07:53:09;;;;;;;;;;;26.30;53.20;;;;;;1589451;73;683;-72
2021/08/14 07:55:11;;;;;;;;;;;26.30;53.20;;;;;;1595317;73;716;-71
2021/08/14 07:57:13;;;;;;;;;;;26.40;53.10;;;;;;1588123;73;1161;-71
2021/08/14 07:59:15;;;;;;;;;;;26.30;53.20;;;;;;1595160;73;728;-73
2021/08/14 08:01:17;;;;;;;;;;;26.40;53.20;;;;;;1577441;73;738;-70
2021/08/14 08:03:18;;;;;;;;;;;26.30;53.20;;;;;;1590497;73;786;-71
2021/08/14 08:05:20;;;;;;;;;;;26.40;53.30;;;;;;1580538;73;708;-71
2021/08/14 08:07:22;;;;;;;;;;;26.30;53.30;;;;;;1596145;73;1956;-71
2021/08/14 08:09:24;;;;;;;;;;;26.40;53.20;;;;;;1595574;73;741;-72
2021/08/14 08:11:26;;;;;;;;;;;26.40;53.10;;;;;;1592992;73;729;-71
2021/08/14 08:13:28;;;;;;;;;;;26.40;53.20;;;;;;1593724;73;771;-71
2021/08/14 08:15:30;;;;;;;;;;;26.30;53.20;;;;;;1597740;73;776;-71
2021/08/14 08:17:32;;;;;;;;;;;26.40;53.20;;;;;;1598765;73;1174;-71
2021/08/14 08:19:33;;;;;;;;;;;26.40;53.20;;;;;;1590208;73;893;-71
2021/08/14 08:21:35;;;;;;;;;;;26.40;53.20;;;;;;1593596;73;710;-72
2021/08/14 08:23:38;;;;;;;;;;;26.30;53.20;;;;;;1597964;73;668;-71
2021/08/14 08:25:40;;;;;;;;;;;26.30;53.20;;;;;;1594774;73;773;-73
2021/08/14 08:27:43;;;;;;;;;;;26.40;53.10;;;;;;1591302;73;1929;-73
2021/08/14 08:29:45;;;;;;;;;;;26.30;53.10;;;;;;1569849;74;639;-70
2021/08/14 08:31:47;;;;;;;;;;;26.30;53.10;;;;;;1539421;76;722;-71
2021/08/14 08:33:49;;;;;;;;;;;26.40;53.20;;;;;;1591153;73;713;-71
2021/08/14 08:35:51;;;;;;;;;;;26.40;53.10;;;;;;1592282;73;750;-71
2021/08/14 08:37:53;;;;;;;;;;;26.40;53.10;;;;;;1589567;73;1135;-70
2021/08/14 08:39:55;;;;;;;;;;;26.40;53.10;;;;;;1592556;73;782;-71
2021/08/14 08:41:57;;;;;;;;;;;26.40;53.10;;;;;;1595602;73;776;-71
2021/08/14 08:43:59;;;;;;;;;;;26.50;53.10;;;;;;1597343;73;740;-71
2021/08/14 08:46:01;;;;;;;;;;;26.40;53.10;;;;;;1594281;73;818;-71
2021/08/14 08:48:03;;;;;;;;;;;26.40;53.10;;;;;;1596387;73;1937;-72
2021/08/14 08:50:06;;;;;;;;;;;26.40;53.10;;;;;;1594252;73;778;-71
2021/08/14 08:52:08;;;;;;;;;;;26.40;53.00;;;;;;1598266;73;720;-71
2021/08/14 08:54:13;;;;;;;;;;;26.30;53.00;;;;;;1596232;73;789;-71
2021/08/14 08:56:15;;;;;;;;;;;26.40;53.00;;;;;;1598015;73;808;-73
2021/08/14 08:58:17;;;;;;;;;;;26.40;52.90;;;;;;1590483;73;1132;-70
2021/08/14 09:00:19;;;;;;;;;;;26.40;53.00;;;;;;1598186;73;728;-71
2021/08/14 09:02:28;;;;;;;;;;;26.40;53.00;;;;;;1593742;73;726;-71
2021/08/14 09:04:33;;;;;;;;;;;26.30;52.90;;;;;;1597249;73;735;-70
2021/08/14 09:06:41;;;;;;;;;;;26.40;53.00;;;;;;1594455;73;801;-71
2021/08/14 09:08:43;;;;;;;;;;;26.40;52.90;;;;;;1597370;73;1974;-70
2021/08/14 09:10:45;;;;;;;;;;;26.30;52.90;;;;;;1571023;74;823;-71
2021/08/14 09:12:47;;;;;;;;;;;26.50;52.90;;;;;;1601046;73;770;-71
2021/08/14 09:14:49;;;;;;;;;;;26.50;52.80;;;;;;1589441;73;589;-71
2021/08/14 09:17:03;;;;;;;;;;;26.40;52.90;;;;;;1587637;73;747;-72
2021/08/14 09:19:05;;;;;;;;;;;26.40;52.80;;;;;;1582267;73;833;-72
2021/08/14 09:21:07;;;;;;;;;;;26.40;52.90;;;;;;1590567;73;710;-71
2021/08/14 09:23:13;;;;;;;;;;;26.30;52.90;;;;;;1602018;73;694;-72
2021/08/14 09:25:18;;;;;;;;;;;26.40;52.80;;;;;;1586225;73;670;-72
2021/08/14 09:27:20;;;;;;;;;;;26.40;52.80;;;;;;1579544;73;1938;-71
2021/08/14 09:29:29;;;;;;;;;;;26.40;52.80;;;;;;1600137;73;940;-71
2021/08/14 09:31:46;;;;;;;;;;;26.40;52.80;;;;;;1560401;74;766;-72
2021/08/14 09:33:48;;;;;;;;;;;26.40;52.80;;;;;;1584180;73;589;-71
2021/08/14 09:35:55;;;;;;;;;;;26.40;52.90;;;;;;1598641;73;769;-68
2021/08/14 09:37:59;;;;;;;;;;;26.40;52.90;;;;;;1597559;73;1811;-72
2021/08/14 09:40:01;;;;;;;;;;;26.40;53.10;;;;;;1586265;73;1733;-71
2021/08/14 09:42:05;;;;;;;;;;;26.40;53.30;;;;;;1591354;73;705;-70
2021/08/14 09:44:08;;;;;;;;;;;26.40;53.60;;;;;;1578282;73;1519;-71
2021/08/14 09:46:10;;;;;;;;;;;26.50;54.00;;;;;;1592362;73;1860;-71
2021/08/14 09:48:16;;;;;;;;;;;26.50;53.80;;;;;;1605071;73;1941;-74
2021/08/14 09:50:18;;;;;;;;;;;26.60;53.00;;;;;;1551771;74;1108;-74
2021/08/14 09:52:22;;;;;;;;;;;26.50;52.80;;;;;;1576798;74;708;-73
2021/08/14 09:54:24;;;;;;;;;;;26.50;52.80;;;;;;1574883;74;1039;-71
2021/08/14 09:56:26;;;;;;;;;;;26.50;52.90;;;;;;1567640;74;929;-73
2021/08/14 09:58:28;;;;;;;;;;;26.50;53.00;;;;;;1573240;74;1164;-74
2021/08/14 10:00:30;;;;;;;;;;;26.40;53.00;;;;;;1566170;74;714;-74
2021/08/14 10:02:32;;;;;;;;;;;26.40;53.00;;;;;;1573494;74;757;-73
2021/08/14 10:04:34;;;;;;;;;;;26.40;53.00;;;;;;1573908;74;745;-73
2021/08/14 10:06:36;;;;;;;;;;;26.40;53.00;;;;;;1581974;74;846;-73
2021/08/14 10:08:38;;;;;;;;;;;26.40;53.00;;;;;;1563171;74;1954;-73
2021/08/14 10:10:40;;;;;;;;;;;26.40;52.90;;;;;;1553389;75;881;-74
2021/08/14 10:12:42;;;;;;;;;;;26.40;52.90;;;;;;1543713;75;712;-75
2021/08/14 10:14:44;;;;;;;;;;;26.50;52.90;;;;;;1567102;74;714;-72
2021/08/14 10:16:46;;;;;;;;;;;26.40;52.90;;;;;;1577254;74;706;-73
2021/08/14 10:18:48;;;;;;;;;;;26.40;52.80;;;;;;1568596;74;1102;-73
2021/08/14 10:20:50;;;;;;;;;;;26.40;52.90;;;;;;1574659;74;772;-73
2021/08/14 10:22:55;;;;;;;;;;;26.40;52.90;;;;;;1551214;75;781;-73
2021/08/14 10:24:57;;;;;;;;;;;26.40;52.80;;;;;;1573016;74;786;-73
2021/08/14 10:27:13;;;;;;;;;;;26.40;52.80;;;;;;1573968;74;686;-75
2021/08/14 10:29:16;;;;;;;;;;;26.50;52.80;;;;;;1548793;76;1939;-74
2021/08/14 10:31:20;;;;;;;;;;;26.40;52.80;;;;;;1532066;77;724;-73
2021/08/14 10:33:31;;;;;;;;;;;26.40;52.70;;;;;;1587340;73;998;-74
2021/08/14 10:35:34;;;;;;;;;;;26.40;52.80;;;;;;1590353;73;758;-74
2021/08/14 10:37:36;;;;;;;;;;;26.40;52.80;;;;;;1598645;73;1143;-73
2021/08/14 10:39:39;;;;;;;;;;;26.40;52.70;;;;;;1598973;73;808;-73
2021/08/14 10:41:43;;;;;;;;;;;26.40;52.70;;;;;;1598134;73;1146;-72
2021/08/14 10:43:57;;;;;;;;;;;26.40;52.70;;;;;;1597634;73;774;-73
2021/08/14 10:45:59;;;;;;;;;;;26.40;52.60;;;;;;1586534;73;776;-73
2021/08/14 10:48:05;;;;;;;;;;;26.40;52.60;;;;;;1567977;74;1946;-74
2021/08/14 10:50:05;;;;;;;;;;;26.40;52.60;;;;;;1574716;73;1006;-74
2021/08/14 10:52:08;;;;;;;;;;;26.40;52.60;;;;;;1573932;74;656;-72
2021/08/14 10:54:10;;;;;;;;;;;26.40;52.60;;;;;;1541049;74;711;-76
2021/08/14 10:56:12;;;;;;;;;;;26.40;52.60;;;;;;1540137;75;736;-75
2021/08/14 10:58:17;;;;;;;;;;;26.40;52.50;;;;;;1544146;75;1223;-75
2021/08/14 11:00:23;;;;;;;;;;;26.40;52.50;;;;;;1565608;74;1105;-75
2021/08/14 11:02:27;;;;;;;;;;;26.40;52.60;;;;;;1578462;74;721;-75
2021/08/14 11:04:36;;;;;;;;;;;26.40;52.60;;;;;;1566407;74;715;-75
2021/08/14 11:06:38;;;;;;;;;;;26.30;52.60;;;;;;1530332;75;786;-75
2021/08/14 11:08:40;;;;;;;;;;;26.30;52.60;;;;;;1567141;74;1956;-75
2021/08/14 11:10:42;;;;;;;;;;;26.30;52.60;;;;;;1578578;73;814;-74
2021/08/14 11:12:47;;;;;;;;;;;26.30;52.60;;;;;;1541216;75;664;-79
2021/08/14 11:14:48;;;;;;;;;;;26.30;52.60;;;;;;1567679;74;1167;-75
2021/08/14 11:17:02;;;;;;;;;;;26.30;52.60;;;;;;1556381;74;673;-75
2021/08/14 11:19:04;;;;;;;;;;;26.30;52.60;;;;;;1530170;75;777;-75
2021/08/14 11:21:06;;;;;;;;;;;26.30;52.60;;;;;;1528631;75;736;-76
2021/08/14 11:23:22;;;;;;;;;;;26.30;52.60;;;;;;1537736;75;817;-73
2021/08/14 11:25:25;;;;;;;;;;;26.30;52.70;;;;;;1569712;74;783;-72
2021/08/14 11:27:34;;;;;;;;;;;26.30;52.90;;;;;;1557693;74;2031;-76
2021/08/14 11:29:36;;;;;;;;;;;26.30;53.10;;;;;;1565690;74;1921;-74
2021/08/14 11:31:37;;;;;;;;;;;26.40;53.10;;;;;;1535073;75;726;-75
2021/08/14 11:33:39;;;;;;;;;;;26.40;52.90;;;;;;1542971;75;744;-76
2021/08/14 11:35:42;;;;;;;;;;;26.40;52.90;;;;;;1543036;75;829;-76
2021/08/14 11:37:50;;;;;;;;;;;26.30;52.90;;;;;;1588382;73;1174;-75
2021/08/14 11:39:57;;;;;;;;;;;26.40;52.90;;;;;;1577665;73;760;-76
2021/08/14 11:41:59;;;;;;;;;;;26.40;52.90;;;;;;1580445;73;1109;-76
2021/08/14 11:44:02;;;;;;;;;;;26.40;52.90;;;;;;1570694;73;745;-76
2021/08/14 11:46:04;;;;;;;;;;;26.30;52.90;;;;;;1586076;73;1380;-76
2021/08/14 11:48:10;;;;;;;;;;;26.30;52.90;;;;;;1589953;73;1949;-76
2021/08/14 11:50:12;;;;;;;;;;;26.30;52.90;;;;;;1591795;73;775;-76
2021/08/14 11:52:14;;;;;;;;;;;26.30;52.90;;;;;;1581794;73;628;-76
2021/08/14 11:54:16;;;;;;;;;;;26.30;52.90;;;;;;1582458;73;1076;-76
2021/08/14 11:56:19;;;;;;;;;;;26.30;52.90;;;;;;1581595;73;727;-75
2021/08/14 11:58:30;;;;;;;;;;;26.30;52.90;;;;;;1582739;73;1175;-76
2021/08/14 12:00:35;;;;;;;;;;;26.30;52.90;;;;;;1576402;73;767;-75
2021/08/14 12:02:37;;;;;;;;;;;26.30;52.90;;;;;;1581746;73;669;-73
2021/08/14 12:04:39;;;;;;;;;;;26.30;52.90;;;;;;1555515;74;787;-76
2021/08/14 12:06:41;;;;;;;;;;;26.30;52.90;;;;;;1589356;73;698;-76
2021/08/14 12:08:43;;;;;;;;;;;26.30;52.90;;;;;;1588880;73;1940;-70
2021/08/14 12:10:46;;;;;;;;;;;26.30;52.80;;;;;;1577205;73;930;-75